Lammers, Minnesota
Current Conditions -  °F | °C
As of 7:34 PM on Sunday 21 Dec 2014 (Local Time) from KBJI Reporting Station
Overcast Overcast  
Wind Chill: 24°   Ceiling: 600
Heat Index: 32°   Visibility: 7mi
Dew Point: 31°   Wind: 9mph
Humidity: 96%   Direction: 130°SE
Pressure: 29.62"   Gusts: NA
Location:  47.545°N, 95.1206°W
Report Text: KBJI 220134Z AUTO 13008KT 7SM OVC006 00/00 A2962 RMK AO2 T00001005
Loading
Personal Weather Stations






























Interactive Weather Map New forecast layout! Learn more

10-Day Weather Forecast

Advertisements
Track Severe Weather on mobile